Share

Chilhowee, MO (64733)

7:31 PM CDT on April 23, 2014 (GMT -0500)
Holden Missouri (KMOHOLDE2) Elev 900 ft | 38.70 °N, 93.99 °W | Change Station

Current weather conditions updated 2 seconds ago

Clear
Clear
69.4 °F
Feels Like 69.4 °F
N
4.9
Wind Variable Wind from SE
Gusts 4.9 mph
Sunrise 6:28 AM
Sunset 7:59 PM
Moon Waning Crescent

Tomorrow is forecast to be Much Cooler than today. Thunderstorms.

Pressure 29.79 in
Visibility 10.0 miles
Clouds Clear
Dew Point 3 °F
Humidity 7%
Rainfall 0.00 in
Snow Depth Not available.
UV 0 out of 16
Pollen 9.60 out of 12
Air Quality Not available.
Flu Activity Sporadic
METAR KGLY 240015Z AUTO 14010G16KT 10SM CLR 23/07 A2979 RMK AO2

More Conditions Fewer Conditions

Pressure 29.79 in
Visibility 10.0 miles
Clouds Clear
Dew Point 3 °F
Humidity 7%
Rainfall 0.00 in
Snow Depth Not available.
UV 0 out of 16
Pollen 9.60 out of 12
Air Quality Not available.
Flu Activity Sporadic
METAR KGLY 240015Z AUTO 14010G16KT 10SM CLR 23/07 A2979 RMK AO2

More Conditions Fewer Conditions

10-Day Weather Forecast

Almanac

Astronomy

Apr. 23, 2014 Rise Set
Actual Time 6:28 AM CDT 7:59 PM CDT
Civil Twilight 6:00 AM CDT 8:27 PM CDT
Nautical Twilight 5:26 AM CDT 9:01 PM CDT
Astronomical Twilight 4:51 AM CDT 9:37 PM CDT
Moon 2:56 AM CDT (4/23) 2:13 PM CDT (4/23)
Length of Visible Light 14h 27m
Length of Day
13h 31m
Tomorrow will be 2m 16s longer.
Waning Crescent, 31% of the Moon is Illuminated
Today
Waning Crescent
Apr 29
New
May 6
First Quarter
May 14
Full
May 21
Last Quarter

Today's Extremes

State Highs State Lows

Community

  • Nestled In
    Nestled In
  • Stunning Sunrise
    Stunning Sunrise
  • spring flowers
    spring flowers
  • Earth Day Spectrum Ove' Blue
    Earth Day Spectrum Ove' Blue
  • BARN B&W
    BARN B&W

WunderPhotos

Upload Photos

1,704,468 photos uploaded!

Nearby

Snow Depth

Station Depth Elevation
No new snow has been reported.

Coastal Water Temperatures

Place Temperature
No Stations Reporting

Earthquake Activity

City Distance Mag. Time & Date
No recent earthquake activity has been reported nearby.
Minimum magnitude displayed is 2.5.

Nearby Weather Stations

Station Location Temp. Heat Index Dew Point Humidity Wind Precip. Elev Updated Type
MesoWest HOLDEN , Holden, MO 68 °F - - - North  at  - 0.00 in / hr 883 ft 6:35 PM CDT MADIS
Holden Missouri, Holden, MO 69.4 °F - 3 °F 7% SE  at  4.9 mph 0.00 in / hr 900 ft 7:31 PM CDT Rapid Fire
RAWS CLINTON MO, Clinton, MO 77 °F 78 °F 44 °F 31% SE  at  6 mph 0.00 in / hr 759 ft 6:13 PM CDT MADIS
Windsor NW, Windsor, MO 70.9 °F 77 °F 41 °F 34% ESE  at  4.0 mph 0.00 in / hr 886 ft 7:30 PM CDT Rapid Fire
NW Kingsville, Kingsville, MO 71.0 °F 77 °F 47 °F 42% WNW  at  5.0 mph 0.00 in / hr 1017 ft 7:30 PM CDT Normal

Show More Stations Show Fewer Stations

What do you think?

We're not finished. Please let us know what you like, what you don't like, and what you are still missing.